Time;durP1;ratioP1;P1;durP2;ratioP2;P2;SDS_P1;SDS_P2;PMS_P1;PMS_P2;Temp;Humidity;BMP_temperature;BMP_pressure;BME280_temperature;BME280_humidity;BME280_pressure;Samples;Min_cycle;Max_cycle;Signal;HPM_P1;HPM_P2
2023/05/12 00:02:24;;;;;;;1.13;0.85;;;15.70;99.90;;;;;;5052292;28;20040;-71
2023/05/12 00:04:50;;;;;;;0.52;0.20;;;15.60;99.90;;;;;;5052057;28;20033;-74
2023/05/12 00:07:16;;;;;;;1.05;0.95;;;15.50;99.90;;;;;;5050834;28;20400;-76
2023/05/12 00:09:41;;;;;;;0.55;0.55;;;15.50;99.90;;;;;;5052317;28;20025;-74
2023/05/12 00:12:08;;;;;;;0.32;0.28;;;15.40;99.90;;;;;;5052192;28;20525;-75
2023/05/12 00:14:35;;;;;;;0.00;0.00;;;15.50;99.90;;;;;;5052246;28;20056;-75
2023/05/12 00:17:02;;;;;;;0.00;0.00;;;15.60;99.90;;;;;;5047745;28;20108;-75
2023/05/12 00:19:28;;;;;;;0.65;0.65;;;15.60;99.90;;;;;;5051557;28;20037;-75
2023/05/12 00:21:54;;;;;;;3.53;1.65;;;15.60;99.90;;;;;;5052320;28;20040;-74
2023/05/12 00:24:20;;;;;;;0.00;0.00;;;15.60;99.90;;;;;;5052016;28;20021;-76
2023/05/12 00:26:45;;;;;;;0.65;0.65;;;15.50;99.90;;;;;;5052209;28;20040;-74
2023/05/12 00:29:11;;;;;;;0.00;0.00;;;15.40;99.90;;;;;;5051951;28;20029;-75
2023/05/12 00:31:37;;;;;;;0.00;0.00;;;15.40;99.90;;;;;;5051983;28;20108;-74
2023/05/12 00:34:03;;;;;;;0.00;0.00;;;15.40;99.90;;;;;;5052111;28;20140;-75
2023/05/12 00:36:29;;;;;;;3.60;2.80;;;15.60;99.90;;;;;;5052006;28;20619;-74
2023/05/12 00:38:55;;;;;;;0.00;0.00;;;15.40;99.90;;;;;;5050668;28;20116;-72
2023/05/12 00:41:21;;;;;;;0.15;0.15;;;15.40;99.90;;;;;;5030830;28;20022;-73
2023/05/12 00:43:47;;;;;;;5.57;2.83;;;15.30;99.90;;;;;;5042124;28;20056;-73
2023/05/12 00:46:13;;;;;;;0.00;0.00;;;15.50;99.90;;;;;;5051570;28;20134;-71
2023/05/12 00:48:39;;;;;;;3.42;1.08;;;15.50;99.90;;;;;;5054429;28;20160;-71
2023/05/12 00:51:05;;;;;;;0.75;0.75;;;15.50;99.90;;;;;;5055334;28;20057;-72
2023/05/12 00:53:31;;;;;;;0.20;0.20;;;15.40;99.90;;;;;;5037490;28;20501;-71
2023/05/12 00:55:57;;;;;;;0.00;0.00;;;15.50;99.90;;;;;;5034252;28;20425;-72
2023/05/12 00:58:25;;;;;;;0.43;0.43;;;15.40;99.90;;;;;;5035516;28;20108;-72
2023/05/12 01:00:51;;;;;;;0.00;0.00;;;15.50;99.90;;;;;;5033940;28;20116;-72
2023/05/12 01:03:18;;;;;;;0.00;0.00;;;15.50;99.90;;;;;;5033826;28;20071;-73
2023/05/12 01:06:11;;;;;;;0.35;0.35;;;15.40;99.90;;;;;;5034044;28;20091;-74
2023/05/12 01:08:40;;;;;;;0.20;0.20;;;15.00;99.90;;;;;;5035271;28;20112;-74
2023/05/12 01:11:06;;;;;;;0.00;0.00;;;15.00;99.90;;;;;;5033915;28;20021;-71
2023/05/12 01:13:32;;;;;;;1.17;1.08;;;15.10;99.90;;;;;;5047799;28;20029;-73
2023/05/12 01:16:00;;;;;;;5.72;1.95;;;15.10;99.90;;;;;;5033830;28;20118;-73
2023/05/12 01:18:27;;;;;;;0.00;0.00;;;15.10;99.90;;;;;;5046184;28;20378;-73
2023/05/12 01:20:55;;;;;;;1.15;0.45;;;15.10;99.90;;;;;;5036756;28;20025;-75
2023/05/12 01:23:26;;;;;;;0.00;0.00;;;15.10;99.90;;;;;;5033753;28;20095;-75
2023/05/12 01:25:54;;;;;;;0.80;0.80;;;15.10;99.90;;;;;;5031806;28;20035;-75
2023/05/12 01:28:20;;;;;;;0.00;0.00;;;15.00;99.90;;;;;;5033555;28;20022;-72
2023/05/12 01:30:47;;;;;;;0.10;0.10;;;15.10;99.90;;;;;;5028846;28;20107;-75
2023/05/12 01:33:13;;;;;;;2.05;1.48;;;15.00;99.90;;;;;;5054792;28;20021;-71
2023/05/12 01:35:39;;;;;;;2.30;1.83;;;14.80;99.90;;;;;;5054673;28;20081;-74
2023/05/12 01:38:05;;;;;;;0.70;0.63;;;14.90;99.90;;;;;;5033416;28;20083;-76
2023/05/12 01:40:35;;;;;;;0.00;0.00;;;14.90;99.90;;;;;;5040888;28;20057;-75
2023/05/12 01:43:01;;;;;;;0.10;0.10;;;14.70;99.90;;;;;;5053100;28;20622;-74
2023/05/12 01:45:32;;;;;;;0.55;0.55;;;14.80;99.90;;;;;;5033724;28;20489;-73
2023/05/12 01:47:58;;;;;;;0.10;0.10;;;14.80;99.90;;;;;;5053161;28;20489;-74
2023/05/12 01:50:24;;;;;;;1.85;0.93;;;14.80;99.90;;;;;;5049598;28;20033;-75
2023/05/12 01:52:50;;;;;;;3.45;2.60;;;14.80;99.90;;;;;;5048455;28;20386;-71
2023/05/12 01:55:17;;;;;;;0.05;0.05;;;14.70;99.90;;;;;;5049765;28;20030;-72
2023/05/12 01:57:52;;;;;;;2.13;1.52;;;14.60;99.90;;;;;;5052926;28;20060;-72
2023/05/12 02:00:20;;;;;;;0.10;0.10;;;14.60;99.90;;;;;;5051824;28;20027;-72
2023/05/12 02:02:47;;;;;;;0.10;0.10;;;14.60;99.90;;;;;;5033419;28;20397;-72
2023/05/12 02:05:13;;;;;;;2.13;1.33;;;14.70;99.90;;;;;;5050745;28;20033;-72
2023/05/12 02:07:41;;;;;;;0.65;0.65;;;14.60;99.90;;;;;;5049446;28;20040;-72
2023/05/12 02:10:08;;;;;;;0.00;0.00;;;14.50;99.90;;;;;;5046094;28;20355;-75
2023/05/12 02:12:34;;;;;;;2.05;1.50;;;14.50;99.90;;;;;;5032455;28;20032;-75
2023/05/12 02:15:00;;;;;;;0.30;0.30;;;14.50;99.90;;;;;;5044719;28;20067;-73
2023/05/12 02:17:27;;;;;;;0.00;0.00;;;14.60;99.90;;;;;;5052000;28;20029;-76
2023/05/12 02:19:57;;;;;;;0.65;0.65;;;14.50;99.90;;;;;;5049508;28;20486;-74
2023/05/12 02:22:23;;;;;;;0.22;0.22;;;14.40;99.90;;;;;;5052489;28;20039;-77
2023/05/12 02:24:49;;;;;;;0.00;0.00;;;14.30;99.90;;;;;;5049016;28;20025;-76
2023/05/12 02:27:15;;;;;;;0.00;0.00;;;14.30;99.90;;;;;;5046037;28;20116;-76
2023/05/12 02:29:41;;;;;;;0.55;0.38;;;14.30;99.90;;;;;;5049184;28;20112;-74
2023/05/12 02:32:07;;;;;;;0.13;0.13;;;14.30;99.90;;;;;;5052358;28;20119;-75
2023/05/12 02:34:33;;;;;;;4.20;0.40;;;14.30;99.90;;;;;;5053632;28;20560;-76
2023/05/12 02:36:59;;;;;;;0.00;0.00;;;14.20;99.90;;;;;;5052290;28;20173;-77
2023/05/12 02:39:25;;;;;;;0.20;0.20;;;14.10;99.90;;;;;;5050359;28;20119;-76
2023/05/12 02:41:51;;;;;;;0.00;0.00;;;14.10;99.90;;;;;;5053162;28;20021;-76
2023/05/12 02:44:17;;;;;;;0.22;0.20;;;14.20;99.90;;;;;;5048795;28;20021;-77
2023/05/12 02:46:43;;;;;;;0.00;0.00;;;14.30;99.90;;;;;;5051839;28;20489;-76
2023/05/12 02:49:10;;;;;;;0.00;0.00;;;14.10;99.90;;;;;;5051918;28;20082;-76
2023/05/12 02:51:35;;;;;;;0.95;0.80;;;13.90;99.90;;;;;;5053213;28;20104;-76
2023/05/12 02:54:01;;;;;;;0.10;0.10;;;14.00;99.90;;;;;;5048448;28;20017;-71
2023/05/12 02:56:28;;;;;;;0.10;0.10;;;13.90;99.90;;;;;;5048868;28;20060;-76
2023/05/12 02:58:53;;;;;;;0.00;0.00;;;14.00;99.90;;;;;;5049503;28;20025;-75
2023/05/12 03:01:20;;;;;;;0.00;0.00;;;14.00;99.90;;;;;;5051903;28;20036;-75
2023/05/12 03:03:46;;;;;;;0.00;0.00;;;13.90;99.90;;;;;;5049152;28;20120;-75
2023/05/12 03:06:12;;;;;;;0.00;0.00;;;14.00;99.90;;;;;;5052931;28;20459;-75
2023/05/12 03:08:38;;;;;;;0.45;0.45;;;14.00;99.90;;;;;;5048324;28;20478;-76
2023/05/12 03:11:04;;;;;;;1.85;0.40;;;14.00;99.90;;;;;;5043148;28;20032;-75
2023/05/12 03:13:30;;;;;;;4.03;1.38;;;14.00;99.90;;;;;;5052745;28;20432;-75
2023/05/12 03:16:00;;;;;;;1.92;0.25;;;13.90;99.90;;;;;;5053022;28;20445;-76
2023/05/12 03:18:27;;;;;;;5.18;1.55;;;13.80;99.90;;;;;;5050390;28;20025;-76
2023/05/12 03:20:53;;;;;;;1.35;1.00;;;13.50;99.90;;;;;;5048161;28;20036;-71
2023/05/12 03:23:21;;;;;;;0.80;0.50;;;13.50;99.90;;;;;;5051528;28;20033;-72
2023/05/12 03:25:47;;;;;;;0.10;0.10;;;13.50;99.90;;;;;;5047907;28;20029;-76
2023/05/12 03:28:12;;;;;;;0.47;0.47;;;13.50;99.90;;;;;;5046011;28;20029;-71
2023/05/12 03:30:39;;;;;;;0.32;0.20;;;13.60;99.90;;;;;;5047996;28;20060;-70
2023/05/12 03:33:04;;;;;;;0.10;0.10;;;13.50;99.90;;;;;;5043679;28;20126;-71
2023/05/12 03:35:30;;;;;;;0.00;0.00;;;13.70;99.90;;;;;;5050429;28;20026;-71
2023/05/12 03:37:59;;;;;;;0.32;0.32;;;13.70;99.90;;;;;;5052600;28;20029;-71
2023/05/12 03:40:25;;;;;;;0.10;0.10;;;13.80;99.90;;;;;;5048549;28;20030;-71
2023/05/12 03:42:51;;;;;;;0.38;0.38;;;13.70;99.90;;;;;;5047940;28;20032;-70
2023/05/12 03:45:17;;;;;;;0.52;0.52;;;13.50;99.90;;;;;;5041034;28;20041;-70
2023/05/12 03:47:43;;;;;;;0.22;0.22;;;13.40;99.90;;;;;;5047852;28;20022;-70
2023/05/12 03:50:10;;;;;;;0.77;0.77;;;13.60;99.90;;;;;;5039069;28;20044;-71
2023/05/12 03:52:37;;;;;;;2.22;1.00;;;13.60;99.90;;;;;;5048548;28;20037;-70
2023/05/12 03:55:05;;;;;;;0.38;0.35;;;13.50;99.90;;;;;;5047383;28;20108;-71
2023/05/12 03:57:31;;;;;;;0.13;0.10;;;13.50;99.90;;;;;;5051130;28;20029;-71
2023/05/12 03:59:57;;;;;;;0.20;0.20;;;13.40;99.90;;;;;;5047901;28;20056;-70
2023/05/12 04:02:24;;;;;;;1.30;1.23;;;13.30;99.90;;;;;;5045139;28;20028;-70
2023/05/12 04:04:49;;;;;;;0.73;0.73;;;13.40;99.90;;;;;;5067429;28;20095;-70
2023/05/12 04:07:15;;;;;;;0.30;0.30;;;13.10;99.90;;;;;;5052501;28;20017;-70
2023/05/12 04:09:42;;;;;;;0.52;0.52;;;13.00;99.90;;;;;;5050205;28;20025;-71
2023/05/12 04:12:09;;;;;;;0.68;0.63;;;12.90;99.90;;;;;;5047750;28;20109;-71
2023/05/12 04:14:34;;;;;;;0.90;0.70;;;13.00;99.90;;;;;;5045816;28;20485;-70
2023/05/12 04:17:01;;;;;;;1.33;0.68;;;13.10;99.90;;;;;;5052558;28;20035;-70
2023/05/12 04:19:27;;;;;;;2.25;1.30;;;13.00;99.90;;;;;;5052221;28;20033;-71
2023/05/12 04:21:52;;;;;;;3.10;2.05;;;12.80;99.90;;;;;;5047636;28;20033;-70
2023/05/12 04:24:18;;;;;;;2.70;2.08;;;12.70;99.90;;;;;;5047034;28;20032;-70
2023/05/12 04:26:44;;;;;;;0.10;0.10;;;12.80;99.90;;;;;;5054569;28;20025;-71
2023/05/12 04:29:12;;;;;;;0.32;0.32;;;12.80;99.90;;;;;;5056253;28;20056;-75
2023/05/12 04:31:38;;;;;;;0.22;0.22;;;12.70;99.90;;;;;;5052774;28;20036;-74
2023/05/12 04:34:05;;;;;;;0.40;0.40;;;12.70;99.90;;;;;;5051309;28;20036;-71
2023/05/12 04:36:32;;;;;;;0.65;0.65;;;12.70;99.90;;;;;;5045020;28;20022;-75
2023/05/12 04:38:59;;;;;;;0.00;0.00;;;12.60;99.90;;;;;;5051105;28;20072;-75
2023/05/12 04:41:24;;;;;;;1.08;1.00;;;12.70;99.90;;;;;;5026606;28;20539;-74
2023/05/12 04:43:50;;;;;;;0.77;0.77;;;12.60;99.90;;;;;;5035869;28;20027;-75
2023/05/12 04:46:16;;;;;;;0.13;0.13;;;12.70;99.90;;;;;;5017706;28;20030;-74
2023/05/12 04:48:43;;;;;;;1.58;1.30;;;12.60;99.90;;;;;;5033550;28;20028;-75
2023/05/12 04:51:09;;;;;;;1.98;1.65;;;12.60;99.90;;;;;;5055518;28;20095;-74
2023/05/12 04:53:35;;;;;;;0.45;0.43;;;12.60;99.90;;;;;;5055291;28;20481;-74
2023/05/12 04:56:02;;;;;;;0.55;0.55;;;12.60;99.90;;;;;;5034109;28;20556;-74
2023/05/12 04:58:31;;;;;;;1.20;1.10;;;12.60;99.90;;;;;;5030623;28;20025;-74
2023/05/12 05:00:57;;;;;;;1.70;1.58;;;12.50;99.90;;;;;;5033768;28;20029;-74
2023/05/12 05:03:23;;;;;;;0.38;0.38;;;12.50;99.90;;;;;;5037387;28;20033;-73
2023/05/12 05:05:50;;;;;;;1.63;1.52;;;12.50;99.90;;;;;;5036556;28;20044;-75
2023/05/12 05:08:15;;;;;;;1.13;1.02;;;12.50;99.90;;;;;;5033665;28;20470;-74
2023/05/12 05:10:41;;;;;;;0.10;0.10;;;12.70;99.90;;;;;;5028472;28;20363;-76
2023/05/12 05:13:07;;;;;;;4.35;1.70;;;12.70;99.90;;;;;;5037076;28;20025;-76
2023/05/12 05:15:34;;;;;;;3.10;1.90;;;12.70;99.90;;;;;;5033735;28;20017;-72
2023/05/12 05:17:59;;;;;;;1.50;1.40;;;12.60;99.90;;;;;;5032405;28;20370;-74
2023/05/12 05:20:27;;;;;;;0.00;0.00;;;12.60;99.90;;;;;;5033526;28;20032;-75
2023/05/12 05:22:53;;;;;;;0.85;0.73;;;12.70;99.90;;;;;;5030767;28;20155;-75
2023/05/12 05:25:19;;;;;;;0.25;0.25;;;12.80;99.90;;;;;;5033292;28;20124;-75
2023/05/12 05:27:44;;;;;;;0.22;0.22;;;12.90;99.90;;;;;;5037092;28;20031;-75
2023/05/12 05:30:11;;;;;;;0.13;0.13;;;12.90;99.90;;;;;;5033413;28;20040;-76
2023/05/12 05:32:39;;;;;;;0.03;0.03;;;12.80;99.90;;;;;;5026952;28;20017;-76
2023/05/12 05:35:06;;;;;;;0.35;0.35;;;12.70;99.90;;;;;;5034757;28;20025;-76
2023/05/12 05:37:33;;;;;;;1.40;1.23;;;12.80;99.90;;;;;;5033715;28;20095;-75
2023/05/12 05:39:59;;;;;;;2.22;1.58;;;12.70;99.90;;;;;;5036404;28;20036;-75
2023/05/12 05:42:25;;;;;;;0.10;0.10;;;12.60;99.90;;;;;;5054479;28;20025;-75
2023/05/12 05:44:53;;;;;;;4.43;1.15;;;12.50;99.90;;;;;;5033490;28;20033;-71
2023/05/12 05:47:19;;;;;;;1.55;0.65;;;12.70;99.90;;;;;;5035021;28;20028;-74
2023/05/12 05:49:44;;;;;;;0.15;0.15;;;12.70;99.90;;;;;;5033533;28;20426;-76
2023/05/12 05:52:10;;;;;;;1.20;1.08;;;12.60;99.90;;;;;;5050701;28;20386;-75
2023/05/12 05:54:36;;;;;;;2.67;1.08;;;12.60;99.90;;;;;;5033161;28;20022;-73
2023/05/12 05:57:03;;;;;;;0.63;0.63;;;12.60;99.90;;;;;;5031186;28;20087;-75
2023/05/12 05:59:29;;;;;;;0.85;0.82;;;12.60;99.90;;;;;;5033119;28;20401;-74
2023/05/12 06:01:55;;;;;;;0.30;0.30;;;12.70;99.90;;;;;;5047227;28;20033;-75
2023/05/12 06:04:21;;;;;;;0.75;0.63;;;12.70;99.90;;;;;;5032485;28;20148;-75
2023/05/12 06:06:47;;;;;;;0.10;0.10;;;12.80;99.90;;;;;;5027108;28;20046;-76
2023/05/12 06:09:14;;;;;;;0.10;0.10;;;12.90;99.90;;;;;;5016383;28;20028;-75
2023/05/12 06:11:40;;;;;;;3.97;2.22;;;13.00;99.90;;;;;;5035211;28;20024;-70
2023/05/12 06:14:06;;;;;;;0.75;0.75;;;12.70;99.90;;;;;;5032958;28;20018;-76
2023/05/12 06:16:31;;;;;;;0.35;0.35;;;12.90;99.90;;;;;;5051444;28;20017;-71
2023/05/12 06:18:57;;;;;;;0.40;0.40;;;13.10;99.90;;;;;;5032668;28;20508;-71
2023/05/12 06:21:23;;;;;;;1.08;1.08;;;13.20;99.90;;;;;;5031008;28;20029;-70
2023/05/12 06:23:50;;;;;;;0.57;0.57;;;13.10;99.90;;;;;;5032698;28;20037;-71
2023/05/12 06:26:16;;;;;;;0.55;0.55;;;13.10;99.90;;;;;;5029477;28;20396;-70
2023/05/12 06:28:42;;;;;;;2.67;0.75;;;13.00;99.90;;;;;;5032503;28;20031;-70
2023/05/12 06:31:08;;;;;;;3.00;1.45;;;13.10;99.90;;;;;;5027152;28;20032;-70
2023/05/12 06:33:34;;;;;;;2.00;1.55;;;13.20;99.90;;;;;;5032069;28;20059;-71
2023/05/12 06:35:59;;;;;;;0.60;0.60;;;13.10;99.90;;;;;;5043201;28;20063;-71
2023/05/12 06:38:25;;;;;;;0.25;0.25;;;13.10;99.90;;;;;;5033470;28;20026;-70
2023/05/12 06:40:51;;;;;;;0.35;0.35;;;13.20;99.90;;;;;;5053560;28;20025;-70
2023/05/12 06:43:17;;;;;;;9.05;4.50;;;13.20;99.90;;;;;;5053303;28;20380;-71
2023/05/12 06:45:44;;;;;;;2.78;0.68;;;13.10;99.90;;;;;;5031510;28;20040;-76
2023/05/12 06:48:10;;;;;;;1.27;1.23;;;13.30;99.90;;;;;;5026839;28;20409;-76
2023/05/12 06:50:36;;;;;;;1.73;1.08;;;13.30;99.90;;;;;;5031822;28;20021;-76
2023/05/12 06:53:02;;;;;;;0.10;0.10;;;13.30;99.90;;;;;;5025322;28;20036;-76
2023/05/12 06:55:28;;;;;;;0.35;0.35;;;13.40;99.90;;;;;;5033716;28;20104;-75
2023/05/12 06:57:54;;;;;;;0.17;0.17;;;13.40;99.90;;;;;;5032065;28;20111;-74
2023/05/12 07:00:24;;;;;;;0.00;0.00;;;13.60;99.90;;;;;;5047086;28;20036;-75
2023/05/12 07:02:50;;;;;;;0.30;0.30;;;13.60;99.90;;;;;;5052923;28;20021;-76
2023/05/12 07:05:17;;;;;;;0.85;0.52;;;13.70;99.90;;;;;;5052966;28;20393;-76
2023/05/12 07:07:44;;;;;;;1.70;0.75;;;13.70;99.90;;;;;;5052902;28;20040;-75
2023/05/12 07:10:10;;;;;;;0.05;0.05;;;13.80;99.90;;;;;;5031799;28;20095;-75
2023/05/12 07:12:37;;;;;;;1.27;0.80;;;13.70;99.90;;;;;;5045870;28;20083;-75
2023/05/12 07:15:03;;;;;;;0.20;0.20;;;13.70;99.90;;;;;;5053076;28;20071;-76
2023/05/12 07:17:29;;;;;;;0.13;0.13;;;13.70;99.90;;;;;;5052536;28;20045;-76
2023/05/12 07:19:55;;;;;;;0.43;0.30;;;13.80;99.90;;;;;;5052719;28;20017;-74
2023/05/12 07:22:22;;;;;;;3.03;1.25;;;13.60;99.90;;;;;;5052612;28;20032;-74
2023/05/12 07:24:48;;;;;;;0.00;0.00;;;13.60;99.90;;;;;;5052843;28;20119;-75
2023/05/12 07:27:14;;;;;;;0.73;0.73;;;13.60;99.90;;;;;;5052787;28;20047;-76
2023/05/12 07:29:40;;;;;;;0.15;0.15;;;13.80;99.90;;;;;;5052771;28;20025;-75
2023/05/12 07:32:06;;;;;;;0.57;0.57;;;13.80;99.90;;;;;;5052389;28;20024;-73
2023/05/12 07:34:32;;;;;;;2.30;1.45;;;13.80;99.90;;;;;;5052403;28;20028;-75
2023/05/12 07:37:01;;;;;;;0.82;0.80;;;13.70;99.90;;;;;;5052830;28;20021;-75
2023/05/12 07:39:29;;;;;;;0.30;0.30;;;13.70;99.90;;;;;;5052450;28;20630;-76
2023/05/12 07:41:55;;;;;;;1.10;1.00;;;13.80;99.90;;;;;;5052670;28;20036;-75
2023/05/12 07:44:21;;;;;;;1.23;1.20;;;13.90;99.90;;;;;;5052426;28;20029;-76
2023/05/12 07:46:46;;;;;;;0.00;0.00;;;13.90;99.90;;;;;;5052152;28;20104;-75
2023/05/12 07:49:12;;;;;;;0.30;0.30;;;13.90;99.90;;;;;;5052358;28;20117;-74
2023/05/12 07:51:38;;;;;;;6.78;4.80;;;14.10;99.90;;;;;;5052701;28;20128;-77
2023/05/12 07:54:05;;;;;;;3.00;2.08;;;14.00;99.90;;;;;;5052298;28;20013;-76
2023/05/12 07:56:30;;;;;;;6.28;3.10;;;14.10;99.90;;;;;;5053250;28;20037;-74
2023/05/12 07:58:56;;;;;;;5.38;2.60;;;14.10;99.90;;;;;;5056433;28;20033;-76
2023/05/12 08:01:22;;;;;;;3.10;2.65;;;14.20;99.90;;;;;;5038360;28;20037;-74
2023/05/12 08:03:50;;;;;;;1.48;1.38;;;14.30;99.90;;;;;;5056284;28;20120;-75
2023/05/12 08:06:16;;;;;;;7.05;5.10;;;14.40;99.90;;;;;;5071880;28;20076;-75
2023/05/12 08:08:42;;;;;;;1.40;1.02;;;14.50;99.90;;;;;;5056188;28;20029;-75
2023/05/12 08:11:08;;;;;;;3.47;2.13;;;14.40;99.90;;;;;;5056444;28;20102;-75
2023/05/12 08:13:36;;;;;;;1.85;0.40;;;14.40;99.90;;;;;;5056368;28;20466;-76
2023/05/12 08:16:02;;;;;;;1.42;1.33;;;14.40;99.90;;;;;;5056010;28;20021;-75
2023/05/12 08:18:27;;;;;;;3.38;1.50;;;14.50;99.90;;;;;;5038566;28;20037;-75
2023/05/12 08:20:53;;;;;;;0.88;0.82;;;14.60;99.90;;;;;;5056579;28;20040;-75
2023/05/12 08:23:19;;;;;;;0.52;0.52;;;14.80;99.90;;;;;;5055973;28;20028;-75
2023/05/12 08:25:47;;;;;;;0.80;0.68;;;14.80;99.90;;;;;;5056128;28;20037;-76
2023/05/12 08:28:13;;;;;;;1.60;1.50;;;14.80;99.90;;;;;;5055932;28;20025;-75
2023/05/12 08:30:43;;;;;;;0.00;0.00;;;14.80;99.90;;;;;;5055817;28;20126;-75
2023/05/12 08:33:10;;;;;;;3.25;3.00;;;14.80;99.90;;;;;;5056200;28;20056;-72
2023/05/12 08:35:36;;;;;;;4.28;3.05;;;14.80;99.90;;;;;;5055766;28;20423;-76
2023/05/12 08:38:02;;;;;;;1.55;1.40;;;14.90;99.90;;;;;;5035063;28;20124;-75
2023/05/12 08:40:30;;;;;;;2.58;1.60;;;15.00;99.90;;;;;;5054005;28;20025;-75
2023/05/12 08:43:17;;;;;;;1.38;1.27;;;15.20;99.90;;;;;;5034506;28;20032;-75
2023/05/12 08:45:45;;;;;;;3.65;2.72;;;15.60;99.90;;;;;;5055050;28;20120;-70
2023/05/12 08:48:12;;;;;;;0.30;0.30;;;15.70;99.90;;;;;;5055605;28;20017;-70
2023/05/12 08:50:41;;;;;;;2.60;1.83;;;15.80;99.90;;;;;;5055324;28;20104;-73
2023/05/12 08:53:13;;;;;;;2.17;2.05;;;15.90;99.90;;;;;;5055803;28;20052;-72
2023/05/12 08:55:40;;;;;;;11.77;3.83;;;16.30;99.90;;;;;;5055265;28;20059;-71
2023/05/12 08:58:07;;;;;;;6.43;3.05;;;16.40;99.90;;;;;;5055297;28;20036;-72
2023/05/12 09:00:35;;;;;;;0.28;0.20;;;16.30;99.90;;;;;;5055267;28;20532;-72
2023/05/12 09:03:04;;;;;;;2.63;0.75;;;16.30;99.90;;;;;;5055473;28;20032;-74
2023/05/12 09:05:31;;;;;;;1.55;1.42;;;16.60;99.90;;;;;;5055025;28;20037;-74
2023/05/12 09:07:58;;;;;;;0.28;0.28;;;16.70;99.90;;;;;;5054685;28;20367;-72
2023/05/12 09:10:26;;;;;;;0.10;0.10;;;16.70;99.90;;;;;;5034152;28;20049;-74
2023/05/12 09:12:57;;;;;;;0.20;0.20;;;16.60;99.90;;;;;;5050131;28;20017;-74
2023/05/12 09:15:29;;;;;;;7.38;2.17;;;16.90;99.90;;;;;;5055392;28;20051;-70
2023/05/12 09:17:55;;;;;;;0.57;0.57;;;16.90;99.90;;;;;;5055168;28;20083;-70
2023/05/12 09:20:21;;;;;;;10.65;2.95;;;16.80;99.90;;;;;;5055054;28;20477;-72
2023/05/12 09:22:47;;;;;;;3.55;2.45;;;16.80;99.90;;;;;;5054871;28;20111;-70
2023/05/12 09:25:20;;;;;;;0.38;0.38;;;16.50;99.90;;;;;;5054738;28;20120;-70
2023/05/12 09:27:47;;;;;;;0.47;0.47;;;16.60;99.90;;;;;;5036917;28;20500;-70
2023/05/12 09:30:14;;;;;;;1.23;1.13;;;16.50;99.90;;;;;;5054673;28;20079;-70
2023/05/12 09:32:40;;;;;;;12.18;6.60;;;16.60;99.90;;;;;;5054798;28;20102;-70
2023/05/12 09:35:10;;;;;;;7.43;1.27;;;16.10;99.90;;;;;;5054727;28;20025;-70
2023/05/12 09:37:36;;;;;;;5.63;1.92;;;15.90;99.90;;;;;;5054653;28;20136;-70
2023/05/12 09:40:07;;;;;;;1.13;1.10;;;15.60;99.90;;;;;;5054421;28;20028;-70
2023/05/12 09:42:34;;;;;;;0.65;0.65;;;15.60;99.90;;;;;;5054122;28;20436;-72
2023/05/12 09:45:10;;;;;;;2.53;0.65;;;15.70;99.90;;;;;;5033537;28;20418;-69
2023/05/12 09:47:39;;;;;;;0.63;0.63;;;15.60;99.90;;;;;;5054288;28;20458;-69
2023/05/12 09:50:07;;;;;;;0.20;0.20;;;15.70;99.90;;;;;;5054683;28;20413;-70
2023/05/12 09:52:37;;;;;;;1.55;0.85;;;15.60;99.90;;;;;;5036433;28;20127;-71
2023/05/12 09:55:08;;;;;;;0.50;0.47;;;15.70;99.90;;;;;;5054377;28;20032;-70
2023/05/12 09:57:44;;;;;;;3.20;1.17;;;15.80;99.90;;;;;;5054225;28;20036;-71
2023/05/12 10:00:13;;;;;;;0.82;0.82;;;15.80;99.90;;;;;;5054273;28;20279;-72
2023/05/12 10:02:42;;;;;;;2.97;0.30;;;16.10;99.90;;;;;;5054173;28;20064;-72
2023/05/12 10:05:15;;;;;;;2.15;2.00;;;16.30;99.90;;;;;;5054248;28;20029;-70
2023/05/12 10:07:52;;;;;;;4.40;2.58;;;16.60;99.90;;;;;;5053795;28;20064;-70
2023/05/12 10:10:22;;;;;;;1.77;1.42;;;17.00;99.90;;;;;;5054028;28;20021;-70
2023/05/12 10:12:48;;;;;;;3.30;2.13;;;17.40;99.90;;;;;;5053910;28;20035;-72
2023/05/12 10:15:16;;;;;;;0.45;0.45;;;17.50;99.90;;;;;;5054091;28;20017;-70
2023/05/12 10:17:43;;;;;;;0.00;0.00;;;17.50;99.90;;;;;;5053835;28;20121;-70
2023/05/12 10:20:12;;;;;;;1.90;1.75;;;17.40;99.90;;;;;;5053225;28;20112;-71
2023/05/12 10:22:39;;;;;;;3.45;1.55;;;17.20;99.90;;;;;;5053687;28;20071;-70
2023/05/12 10:25:07;;;;;;;4.40;3.22;;;17.20;99.90;;;;;;5053344;28;20112;-71
2023/05/12 10:27:34;;;;;;;11.52;2.85;;;16.90;99.90;;;;;;5053671;28;20029;-71
2023/05/12 10:30:02;;;;;;;1.05;0.98;;;16.80;99.90;;;;;;5053857;28;20060;-70
2023/05/12 10:32:28;;;;;;;3.80;2.65;;;16.60;99.90;;;;;;5035714;28;20025;-70
2023/05/12 10:34:55;;;;;;;0.22;0.22;;;16.50;99.90;;;;;;5016163;28;20083;-70
2023/05/12 10:37:24;;;;;;;1.75;0.95;;;16.80;99.90;;;;;;5053398;28;20029;-69
2023/05/12 10:39:51;;;;;;;1.80;1.20;;;17.00;99.90;;;;;;5053117;28;20037;-69
2023/05/12 10:42:26;;;;;;;0.57;0.57;;;17.20;99.90;;;;;;5151821;27;20110;-70
2023/05/12 10:44:53;;;;;;;0.25;0.25;;;18.10;99.90;;;;;;5151936;27;20080;-69
2023/05/12 10:47:35;;;;;;;0.60;0.60;;;18.80;99.90;;;;;;5151586;27;20025;-69
2023/05/12 10:50:01;;;;;;;5.72;1.15;;;18.90;99.90;;;;;;5151751;27;20015;-70
2023/05/12 10:52:26;;;;;;;0.55;0.55;;;18.90;99.90;;;;;;5132729;27;20542;-71
2023/05/12 10:55:03;;;;;;;0.90;0.30;;;18.40;99.90;;;;;;5151397;27;20110;-71
2023/05/12 10:57:29;;;;;;;0.25;0.25;;;18.40;99.90;;;;;;5150938;27;20061;-70
2023/05/12 11:00:02;;;;;;;1.20;0.57;;;18.60;99.90;;;;;;5151404;27;20027;-70
2023/05/12 11:02:32;;;;;;;0.32;0.22;;;18.20;99.90;;;;;;5151124;27;20079;-70
2023/05/12 11:05:00;;;;;;;11.68;1.50;;;17.90;99.90;;;;;;5151612;27;20027;-70
2023/05/12 11:07:28;;;;;;;0.80;0.80;;;17.70;99.90;;;;;;5151033;27;20023;-70
2023/05/12 11:09:56;;;;;;;1.98;0.98;;;17.40;99.90;;;;;;5136188;27;20057;-69
2023/05/12 11:12:22;;;;;;;0.25;0.20;;;17.40;99.90;;;;;;5151281;27;20030;-70
2023/05/12 11:14:48;;;;;;;0.82;0.82;;;17.40;99.90;;;;;;5151126;27;20054;-70
2023/05/12 11:17:14;;;;;;;1.33;1.17;;;17.30;99.90;;;;;;5132684;27;20023;-70
2023/05/12 11:19:46;;;;;;;0.52;0.45;;;17.50;99.90;;;;;;5150967;27;20120;-70
2023/05/12 11:22:12;;;;;;;;;;;17.90;99.90;;;;;;5133021;27;20035;-71
2023/05/12 11:24:39;;;;;;;1.63;0.88;;;18.00;99.90;;;;;;5132030;27;19907;-70
2023/05/12 11:27:10;;;;;;;0.65;0.50;;;18.20;99.90;;;;;;5151004;27;20103;-69
2023/05/12 11:29:38;;;;;;;3.10;1.30;;;18.80;99.90;;;;;;5132336;27;20411;-74
2023/05/12 11:32:04;;;;;;;0.08;0.08;;;19.10;99.90;;;;;;5150998;27;20022;-72
2023/05/12 11:34:30;;;;;;;0.15;0.15;;;19.10;99.90;;;;;;5150487;27;20015;-72
2023/05/12 11:36:56;;;;;;;0.43;0.43;;;18.60;99.90;;;;;;5150336;27;20026;-70
2023/05/12 11:39:25;;;;;;;0.10;0.10;;;18.40;99.90;;;;;;5150747;27;20031;-74
2023/05/12 11:41:51;;;;;;;1.10;0.35;;;18.50;99.90;;;;;;5150391;27;20045;-74
2023/05/12 11:44:19;;;;;;;0.38;0.30;;;19.20;99.90;;;;;;5150531;27;20054;-72
2023/05/12 11:47:05;;;;;;;0.20;0.20;;;19.60;99.90;;;;;;5131953;27;20099;-76
2023/05/12 11:49:31;;;;;;;0.75;0.30;;;20.50;99.90;;;;;;5135859;27;20364;-72
2023/05/12 11:52:01;;;;;;;0.50;0.50;;;20.80;99.90;;;;;;5146608;27;20051;-72
2023/05/12 11:54:28;;;;;;;1.83;1.17;;;21.20;99.90;;;;;;5136440;27;20471;-74
2023/05/12 11:56:56;;;;;;;0.22;0.22;;;21.20;99.90;;;;;;5136606;27;20027;-73
2023/05/12 11:59:30;;;;;;;0.30;0.30;;;20.40;99.90;;;;;;5136427;27;20473;-75
2023/05/12 12:01:57;;;;;;;0.00;0.00;;;20.40;99.90;;;;;;5136253;27;20099;-72
2023/05/12 12:04:40;;;;;;;0.25;0.25;;;20.40;99.90;;;;;;5117925;27;20106;-75
2023/05/12 12:07:09;;;;;;;0.00;0.00;;;20.40;99.90;;;;;;5136247;27;20114;-72
2023/05/12 12:09:40;;;;;;;0.98;0.52;;;20.40;99.90;;;;;;5121562;27;20471;-72
2023/05/12 12:12:08;;;;;;;0.73;0.55;;;20.50;99.90;;;;;;5136235;27;20033;-74
2023/05/12 12:14:36;;;;;;;0.22;0.22;;;20.50;99.90;;;;;;5136180;27;20019;-70
2023/05/12 12:17:03;;;;;;;0.10;0.10;;;20.90;99.90;;;;;;5117894;27;20094;-75
2023/05/12 12:19:29;;;;;;;0.15;0.15;;;21.20;99.90;;;;;;5136164;27;20060;-75
2023/05/12 12:21:56;;;;;;;0.20;0.20;;;22.20;99.90;;;;;;5135689;27;20399;-72
2023/05/12 12:24:23;;;;;;;0.43;0.43;;;22.30;99.90;;;;;;5135977;27;20019;-74
2023/05/12 12:26:49;;;;;;;0.13;0.13;;;22.50;99.90;;;;;;5136008;27;20110;-75
2023/05/12 12:29:15;;;;;;;0.32;0.32;;;22.50;99.90;;;;;;5135917;27;20042;-73
2023/05/12 12:31:41;;;;;;;1.52;0.85;;;22.00;99.90;;;;;;5135890;27;20015;-75
2023/05/12 12:34:06;;;;;;;0.75;0.30;;;22.10;99.90;;;;;;5136163;27;20023;-71
2023/05/12 12:36:32;;;;;;;0.20;0.20;;;22.90;99.90;;;;;;5135779;27;20478;-69
2023/05/12 12:38:59;;;;;;;0.08;0.08;;;22.90;99.90;;;;;;5135861;27;20378;-71
2023/05/12 12:41:25;;;;;;;0.32;0.32;;;22.30;99.90;;;;;;5135732;27;20035;-68
2023/05/12 12:43:51;;;;;;;0.10;0.10;;;21.90;99.90;;;;;;5120359;27;20057;-70
2023/05/12 12:46:17;;;;;;;0.10;0.10;;;21.90;99.90;;;;;;5125595;27;20031;-70
2023/05/12 12:48:43;;;;;;;0.10;0.10;;;21.90;99.90;;;;;;5135601;27;20032;-69